Ringtown, Pennsylvania
Current Conditions -  °F | °C
As of 8:35 PM on Saturday 25 Oct 2014 (Local Time) from KHZL Reporting Station
Clear Clear  
Wind Chill: 59°   Ceiling: Unl
Heat Index: 59°   Visibility: 10mi
Dew Point: 45°   Wind: 5mph
Humidity: 59%   Direction: 250°WSW
Pressure: 29.68"   Gusts: NA
Location:  40.86°N, 76.23°W
Report Text: KHZL 260035Z AUTO 25004KT 10SM CLR 15/07 A2968 RMK AO2
Loading
Personal Weather Stations






























Interactive Weather Map
Tropical Storm Tracking
New forecast layout! Learn more

10-Day Weather Forecast

Advertisements
Track Severe Weather on mobile